Time;durP1;ratioP1;P1;durP2;ratioP2;P2;SDS_P1;SDS_P2;PMS_P1;PMS_P2;Temp;Humidity;BMP_temperature;BMP_pressure;BME280_temperature;BME280_humidity;BME280_pressure;Samples;Min_cycle;Max_cycle;Signal;HPM_P1;HPM_P2
2023/03/01 21:44:28;;;;;;;0.52;0.52;;;;;;;25.36;24.86;102309.25;5075253;27;20413;-63
2023/03/01 21:46:54;;;;;;;4.57;0.75;;;;;;;26.15;24.40;102335.88;5083921;28;20032;-59
2023/03/01 21:49:20;;;;;;;1.60;0.70;;;;;;;26.56;23.76;102341.97;5086678;28;20038;-60
2023/03/01 21:51:46;;;;;;;1.60;0.60;;;;;;;26.77;23.64;102331.22;5086848;28;20024;-64
2023/03/01 21:54:13;;;;;;;4.75;0.73;;;;;;;26.99;23.21;102339.47;5085387;28;20036;-59
2023/03/01 21:56:39;;;;;;;1.65;0.65;;;;;;;27.13;22.77;102337.94;5086912;28;20028;-59
2023/03/01 21:59:11;;;;;;;1.75;0.70;;;;;;;27.24;22.72;102347.16;5088761;28;20136;-55
2023/03/01 22:01:37;;;;;;;3.22;0.70;;;;;;;27.37;22.59;102334.91;5088225;28;20029;-57
2023/03/01 22:04:03;;;;;;;4.85;0.70;;;;;;;27.37;22.81;102327.44;5087325;28;20457;-58
2023/03/01 22:06:41;;;;;;;0.93;0.57;;;;;;;27.67;22.30;102334.34;5085379;28;20036;-57
2023/03/01 22:09:18;;;;;;;2.92;0.40;;;;;;;27.65;22.31;102336.53;5082221;28;20035;-58
2023/03/01 22:11:49;;;;;;;1.25;0.60;;;;;;;27.60;22.29;102317.19;5088358;28;20085;-58
2023/03/01 22:14:17;;;;;;;1.83;0.60;;;;;;;27.82;22.05;102344.66;5086669;28;20055;-58
2023/03/01 22:16:44;;;;;;;3.90;0.80;;;;;;;27.85;22.00;102346.91;5088030;28;20032;-64
2023/03/01 22:19:11;;;;;;;1.40;0.80;;;;;;;27.89;21.89;102334.25;5088957;28;20119;-61
2023/03/01 22:21:38;;;;;;;3.53;0.70;;;;;;;27.89;21.93;102342.53;5086549;28;20032;-63
2023/03/01 22:24:04;;;;;;;1.08;0.60;;;;;;;28.00;22.22;102349.81;5088271;28;20030;-61
2023/03/01 22:26:35;;;;;;;0.63;0.60;;;;;;;28.00;21.85;102336.00;5085593;28;20040;-61
2023/03/01 22:29:05;;;;;;;0.80;0.57;;;;;;;28.02;21.67;102354.25;5087840;28;20111;-61
2023/03/01 22:31:31;;;;;;;1.65;0.50;;;;;;;28.06;21.74;102355.38;5087703;28;20107;-61
2023/03/01 22:33:57;;;;;;;2.83;0.60;;;;;;;28.01;21.88;102347.91;5086655;28;20108;-60
2023/03/01 22:36:23;;;;;;;0.55;0.55;;;;;;;28.06;21.39;102334.09;5088178;28;20455;-60
2023/03/01 22:38:55;;;;;;;3.83;0.70;;;;;;;28.09;21.83;102349.31;5087480;28;20038;-56
2023/03/01 22:41:20;;;;;;;1.23;0.60;;;;;;;28.01;21.63;102331.31;5087387;28;20024;-59
2023/03/01 22:43:45;;;;;;;0.52;0.50;;;;;;;28.21;21.22;102347.19;5088881;28;20036;-63
2023/03/01 22:46:16;;;;;;;4.13;0.52;;;;;;;28.12;21.20;102334.97;5085995;28;20036;-64
2023/03/01 22:48:43;;;;;;;1.15;0.50;;;;;;;27.97;21.18;102305.31;5088531;28;20028;-65
2023/03/01 22:51:23;;;;;;;0.65;0.50;;;;;;;28.22;21.50;102343.31;5086860;28;20101;-63
2023/03/01 22:53:48;;;;;;;0.65;0.60;;;;;;;28.30;21.16;102336.47;5086630;28;20028;-64
2023/03/01 22:56:17;;;;;;;1.23;0.60;;;;;;;28.36;20.96;102344.53;5072395;28;20146;-64
2023/03/01 22:58:43;;;;;;;0.57;0.50;;;;;;;28.42;20.82;102344.53;5071685;28;20060;-63
2023/03/01 23:01:15;;;;;;;0.80;0.80;;;;;;;28.29;20.74;102326.53;5075876;28;20048;-63
2023/03/01 23:03:41;;;;;;;0.65;0.57;;;;;;;28.38;20.89;102341.50;5072169;28;20040;-63
2023/03/01 23:06:08;;;;;;;0.60;0.60;;;;;;;28.39;20.81;102345.91;5074465;28;20103;-63
2023/03/01 23:08:34;;;;;;;0.80;0.60;;;;;;;28.39;20.79;102338.44;5075089;28;20514;-61
2023/03/01 23:11:00;;;;;;;0.50;0.50;;;;;;;28.34;21.00;102348.63;5070424;28;20040;-60
2023/03/01 23:13:25;;;;;;;0.57;0.57;;;;;;;28.39;20.56;102346.72;5074116;28;20025;-60
2023/03/01 23:15:57;;;;;;;0.95;0.50;;;;;;;28.41;20.50;102340.13;5071988;28;20484;-60
2023/03/01 23:18:23;;;;;;;0.88;0.60;;;;;;;28.39;20.58;102332.91;5074111;28;20029;-60
2023/03/01 23:20:49;;;;;;;0.75;0.60;;;;;;;28.38;20.66;102331.25;5071484;28;20456;-60
2023/03/01 23:23:14;;;;;;;9.70;0.63;;;;;;;28.39;20.79;102340.38;5071050;28;20469;-60
2023/03/01 23:25:39;;;;;;;0.90;0.60;;;;;;;28.34;20.35;102346.72;5073220;28;20479;-61
2023/03/01 23:28:06;;;;;;;0.70;0.70;;;;;;;28.45;20.35;102339.28;5072176;28;20535;-61
2023/03/01 23:30:32;;;;;;;1.85;0.60;;;;;;;28.31;20.24;102324.31;5073611;28;20104;-66
2023/03/01 23:32:59;;;;;;;0.90;0.50;;;;;;;28.48;20.42;102330.47;5073643;28;20477;-66
2023/03/01 23:35:25;;;;;;;0.40;0.40;;;;;;;28.43;20.54;102332.38;5071187;28;20041;-63
2023/03/01 23:37:51;;;;;;;0.60;0.50;;;;;;;28.41;20.09;102327.13;5073523;28;20055;-58
2023/03/01 23:40:17;;;;;;;1.13;0.50;;;;;;;28.54;20.18;102337.72;5072905;28;20063;-60
2023/03/01 23:42:42;;;;;;;0.73;0.65;;;;;;;28.36;20.19;102327.09;5071875;28;20116;-60
2023/03/01 23:45:08;;;;;;;0.70;0.70;;;;;;;28.15;20.59;102321.44;5071968;28;20107;-60
2023/03/01 23:47:34;;;;;;;0.45;0.43;;;;;;;28.06;20.33;102327.75;5071820;28;20086;-59
2023/03/01 23:50:00;;;;;;;1.25;0.60;;;;;;;28.02;20.28;102323.88;5071266;28;20446;-60
2023/03/01 23:52:25;;;;;;;2.53;0.60;;;;;;;27.91;20.51;102328.47;5072081;28;20112;-60
2023/03/01 23:54:51;;;;;;;2.15;0.60;;;;;;;27.90;20.50;102338.69;5071480;28;20504;-60
2023/03/01 23:57:17;;;;;;;1.17;0.68;;;;;;;27.88;20.50;102340.88;5073005;28;20488;-59
2023/03/01 23:59:42;;;;;;;1.20;0.80;;;;;;;27.75;20.60;102322.00;5072221;28;20031;-60
